sensor_id;sensor_type;location;lat;lon;timestamp;P1;durP1;ratioP1;P2;durP2;ratioP2
22557;SDS011;11445;53.816;8.902;2023-06-19T00:01:42;9.45;;;5.60;;
22557;SDS011;11445;53.816;8.902;2023-06-19T00:04:09;10.15;;;6.35;;
22557;SDS011;11445;53.816;8.902;2023-06-19T00:06:37;8.82;;;5.55;;
22557;SDS011;11445;53.816;8.902;2023-06-19T00:09:04;6.82;;;6.00;;
22557;SDS011;11445;53.816;8.902;2023-06-19T00:11:32;8.45;;;6.28;;
22557;SDS011;11445;53.816;8.902;2023-06-19T00:13:59;10.18;;;6.15;;
22557;SDS011;11445;53.816;8.902;2023-06-19T00:16:26;6.72;;;6.00;;
22557;SDS011;11445;53.816;8.902;2023-06-19T00:18:52;7.40;;;5.50;;
22557;SDS011;11445;53.816;8.902;2023-06-19T00:21:20;10.48;;;6.35;;
22557;SDS011;11445;53.816;8.902;2023-06-19T00:23:50;6.38;;;5.68;;
22557;SDS011;11445;53.816;8.902;2023-06-19T00:26:17;8.02;;;5.93;;
22557;SDS011;11445;53.816;8.902;2023-06-19T00:28:47;8.98;;;5.97;;
22557;SDS011;11445;53.816;8.902;2023-06-19T00:31:14;5.70;;;5.15;;
22557;SDS011;11445;53.816;8.902;2023-06-19T00:33:41;7.50;;;6.18;;
22557;SDS011;11445;53.816;8.902;2023-06-19T00:36:09;7.18;;;6.15;;
22557;SDS011;11445;53.816;8.902;2023-06-19T00:38:36;8.60;;;5.65;;
22557;SDS011;11445;53.816;8.902;2023-06-19T00:41:04;6.40;;;5.72;;
22557;SDS011;11445;53.816;8.902;2023-06-19T00:43:31;9.18;;;5.90;;
22557;SDS011;11445;53.816;8.902;2023-06-19T00:45:59;7.22;;;5.78;;
22557;SDS011;11445;53.816;8.902;2023-06-19T00:48:27;8.70;;;5.75;;
22557;SDS011;11445;53.816;8.902;2023-06-19T00:50:55;7.50;;;5.78;;
22557;SDS011;11445;53.816;8.902;2023-06-19T00:53:23;7.93;;;5.63;;
22557;SDS011;11445;53.816;8.902;2023-06-19T00:55:50;10.05;;;6.40;;
22557;SDS011;11445;53.816;8.902;2023-06-19T00:58:20;8.90;;;5.80;;
22557;SDS011;11445;53.816;8.902;2023-06-19T01:00:47;9.90;;;5.93;;
22557;SDS011;11445;53.816;8.902;2023-06-19T01:03:14;9.40;;;5.88;;
22557;SDS011;11445;53.816;8.902;2023-06-19T01:05:41;7.80;;;5.75;;
22557;SDS011;11445;53.816;8.902;2023-06-19T01:08:10;6.80;;;6.00;;
22557;SDS011;11445;53.816;8.902;2023-06-19T01:10:41;7.03;;;5.82;;
22557;SDS011;11445;53.816;8.902;2023-06-19T01:13:21;9.30;;;6.20;;
22557;SDS011;11445;53.816;8.902;2023-06-19T01:15:57;10.68;;;6.40;;
22557;SDS011;11445;53.816;8.902;2023-06-19T01:18:24;8.63;;;5.72;;
22557;SDS011;11445;53.816;8.902;2023-06-19T01:20:52;8.70;;;5.95;;
22557;SDS011;11445;53.816;8.902;2023-06-19T01:23:20;8.60;;;6.03;;
22557;SDS011;11445;53.816;8.902;2023-06-19T01:25:47;7.50;;;5.75;;
22557;SDS011;11445;53.816;8.902;2023-06-19T01:28:14;6.45;;;5.70;;
22557;SDS011;11445;53.816;8.902;2023-06-19T01:30:41;7.45;;;5.53;;
22557;SDS011;11445;53.816;8.902;2023-06-19T01:33:09;11.13;;;5.88;;
22557;SDS011;11445;53.816;8.902;2023-06-19T01:35:39;10.57;;;5.97;;
22557;SDS011;11445;53.816;8.902;2023-06-19T01:38:09;8.48;;;5.65;;
22557;SDS011;11445;53.816;8.902;2023-06-19T01:40:39;6.57;;;5.97;;
22557;SDS011;11445;53.816;8.902;2023-06-19T01:43:07;10.13;;;6.25;;
22557;SDS011;11445;53.816;8.902;2023-06-19T01:45:35;7.65;;;5.80;;
22557;SDS011;11445;53.816;8.902;2023-06-19T01:48:02;6.13;;;5.53;;
22557;SDS011;11445;53.816;8.902;2023-06-19T01:50:29;7.15;;;5.75;;
22557;SDS011;11445;53.816;8.902;2023-06-19T01:52:56;7.03;;;5.40;;
22557;SDS011;11445;53.816;8.902;2023-06-19T01:55:23;8.02;;;6.30;;
22557;SDS011;11445;53.816;8.902;2023-06-19T01:57:51;7.38;;;6.07;;
22557;SDS011;11445;53.816;8.902;2023-06-19T02:00:18;8.00;;;6.28;;
22557;SDS011;11445;53.816;8.902;2023-06-19T02:02:45;9.90;;;6.30;;
22557;SDS011;11445;53.816;8.902;2023-06-19T02:05:12;6.05;;;5.45;;
22557;SDS011;11445;53.816;8.902;2023-06-19T02:07:40;6.50;;;5.85;;
22557;SDS011;11445;53.816;8.902;2023-06-19T02:10:07;6.10;;;5.60;;
22557;SDS011;11445;53.816;8.902;2023-06-19T02:12:34;13.13;;;5.68;;
22557;SDS011;11445;53.816;8.902;2023-06-19T02:15:05;6.28;;;5.65;;
22557;SDS011;11445;53.816;8.902;2023-06-19T02:17:33;13.60;;;5.93;;
22557;SDS011;11445;53.816;8.902;2023-06-19T02:20:00;7.93;;;5.55;;
22557;SDS011;11445;53.816;8.902;2023-06-19T02:22:27;8.90;;;6.10;;
22557;SDS011;11445;53.816;8.902;2023-06-19T02:24:53;7.13;;;6.00;;
22557;SDS011;11445;53.816;8.902;2023-06-19T02:27:20;10.52;;;6.15;;
22557;SDS011;11445;53.816;8.902;2023-06-19T02:29:47;6.35;;;5.72;;
22557;SDS011;11445;53.816;8.902;2023-06-19T02:32:15;8.32;;;5.57;;
22557;SDS011;11445;53.816;8.902;2023-06-19T02:34:42;8.77;;;5.90;;
22557;SDS011;11445;53.816;8.902;2023-06-19T02:37:09;7.90;;;6.18;;
22557;SDS011;11445;53.816;8.902;2023-06-19T02:39:35;7.13;;;5.65;;
22557;SDS011;11445;53.816;8.902;2023-06-19T02:42:03;7.57;;;6.40;;
22557;SDS011;11445;53.816;8.902;2023-06-19T02:44:30;8.27;;;5.93;;
22557;SDS011;11445;53.816;8.902;2023-06-19T02:46:57;11.75;;;6.05;;
22557;SDS011;11445;53.816;8.902;2023-06-19T02:49:25;8.75;;;5.68;;
22557;SDS011;11445;53.816;8.902;2023-06-19T02:51:52;8.10;;;5.78;;
22557;SDS011;11445;53.816;8.902;2023-06-19T02:54:19;8.95;;;5.55;;
22557;SDS011;11445;53.816;8.902;2023-06-19T02:56:46;6.90;;;6.20;;
22557;SDS011;11445;53.816;8.902;2023-06-19T02:59:12;7.15;;;6.40;;
22557;SDS011;11445;53.816;8.902;2023-06-19T03:01:39;7.30;;;6.22;;
22557;SDS011;11445;53.816;8.902;2023-06-19T03:04:06;7.53;;;6.47;;
22557;SDS011;11445;53.816;8.902;2023-06-19T03:06:34;7.22;;;6.07;;
22557;SDS011;11445;53.816;8.902;2023-06-19T03:09:05;9.05;;;6.43;;
22557;SDS011;11445;53.816;8.902;2023-06-19T03:11:37;9.25;;;6.55;;
22557;SDS011;11445;53.816;8.902;2023-06-19T03:14:04;8.25;;;6.28;;
22557;SDS011;11445;53.816;8.902;2023-06-19T03:16:32;7.43;;;6.68;;
22557;SDS011;11445;53.816;8.902;2023-06-19T03:18:59;9.20;;;6.43;;
22557;SDS011;11445;53.816;8.902;2023-06-19T03:21:26;10.85;;;7.10;;
22557;SDS011;11445;53.816;8.902;2023-06-19T03:23:54;7.20;;;6.38;;
22557;SDS011;11445;53.816;8.902;2023-06-19T03:26:21;8.20;;;6.70;;
22557;SDS011;11445;53.816;8.902;2023-06-19T03:28:49;9.02;;;6.30;;
22557;SDS011;11445;53.816;8.902;2023-06-19T03:31:16;9.50;;;6.50;;
22557;SDS011;11445;53.816;8.902;2023-06-19T03:33:43;7.82;;;6.63;;
22557;SDS011;11445;53.816;8.902;2023-06-19T03:36:10;8.75;;;6.32;;
22557;SDS011;11445;53.816;8.902;2023-06-19T03:38:37;8.23;;;6.18;;
22557;SDS011;11445;53.816;8.902;2023-06-19T03:41:05;11.32;;;6.43;;
22557;SDS011;11445;53.816;8.902;2023-06-19T03:43:32;8.80;;;5.90;;
22557;SDS011;11445;53.816;8.902;2023-06-19T03:45:58;8.55;;;6.43;;
22557;SDS011;11445;53.816;8.902;2023-06-19T03:48:25;7.28;;;6.10;;
22557;SDS011;11445;53.816;8.902;2023-06-19T03:50:52;8.30;;;6.68;;
22557;SDS011;11445;53.816;8.902;2023-06-19T03:53:20;7.35;;;6.45;;
22557;SDS011;11445;53.816;8.902;2023-06-19T03:55:47;9.35;;;6.88;;
22557;SDS011;11445;53.816;8.902;2023-06-19T03:58:15;7.45;;;6.75;;
22557;SDS011;11445;53.816;8.902;2023-06-19T04:00:41;8.77;;;6.90;;
22557;SDS011;11445;53.816;8.902;2023-06-19T04:03:09;8.07;;;6.45;;
22557;SDS011;11445;53.816;8.902;2023-06-19T04:05:35;9.07;;;6.63;;
22557;SDS011;11445;53.816;8.902;2023-06-19T04:08:03;9.40;;;6.55;;
22557;SDS011;11445;53.816;8.902;2023-06-19T04:10:30;10.20;;;6.53;;
22557;SDS011;11445;53.816;8.902;2023-06-19T04:12:57;7.00;;;6.30;;
22557;SDS011;11445;53.816;8.902;2023-06-19T04:15:25;9.65;;;6.85;;
22557;SDS011;11445;53.816;8.902;2023-06-19T04:17:52;9.15;;;6.40;;
22557;SDS011;11445;53.816;8.902;2023-06-19T04:20:19;7.85;;;7.00;;
22557;SDS011;11445;53.816;8.902;2023-06-19T04:22:46;8.20;;;6.47;;
22557;SDS011;11445;53.816;8.902;2023-06-19T04:25:13;7.22;;;6.18;;
22557;SDS011;11445;53.816;8.902;2023-06-19T04:27:39;10.52;;;7.32;;
22557;SDS011;11445;53.816;8.902;2023-06-19T04:30:06;14.90;;;6.78;;
22557;SDS011;11445;53.816;8.902;2023-06-19T04:32:35;9.18;;;7.15;;
22557;SDS011;11445;53.816;8.902;2023-06-19T04:35:05;7.10;;;6.40;;
22557;SDS011;11445;53.816;8.902;2023-06-19T04:37:33;9.05;;;6.55;;
22557;SDS011;11445;53.816;8.902;2023-06-19T04:40:00;7.65;;;6.53;;
22557;SDS011;11445;53.816;8.902;2023-06-19T04:42:27;11.98;;;6.63;;
22557;SDS011;11445;53.816;8.902;2023-06-19T04:44:54;12.40;;;7.13;;
22557;SDS011;11445;53.816;8.902;2023-06-19T04:47:24;9.93;;;7.07;;
22557;SDS011;11445;53.816;8.902;2023-06-19T04:49:52;8.18;;;6.75;;
22557;SDS011;11445;53.816;8.902;2023-06-19T04:52:19;10.00;;;6.72;;
22557;SDS011;11445;53.816;8.902;2023-06-19T04:54:46;11.07;;;6.80;;
22557;SDS011;11445;53.816;8.902;2023-06-19T04:57:13;8.48;;;7.07;;
22557;SDS011;11445;53.816;8.902;2023-06-19T04:59:40;9.40;;;6.90;;
22557;SDS011;11445;53.816;8.902;2023-06-19T05:02:07;11.45;;;6.93;;
22557;SDS011;11445;53.816;8.902;2023-06-19T05:04:34;9.50;;;6.63;;
22557;SDS011;11445;53.816;8.902;2023-06-19T05:07:03;9.15;;;7.05;;
22557;SDS011;11445;53.816;8.902;2023-06-19T05:09:31;10.65;;;7.03;;
22557;SDS011;11445;53.816;8.902;2023-06-19T05:11:58;8.75;;;7.45;;
22557;SDS011;11445;53.816;8.902;2023-06-19T05:14:24;7.78;;;6.88;;
22557;SDS011;11445;53.816;8.902;2023-06-19T05:16:51;9.55;;;7.70;;
22557;SDS011;11445;53.816;8.902;2023-06-19T05:19:19;9.68;;;7.90;;
22557;SDS011;11445;53.816;8.902;2023-06-19T05:21:46;11.13;;;7.80;;
22557;SDS011;11445;53.816;8.902;2023-06-19T05:24:14;10.93;;;7.93;;
22557;SDS011;11445;53.816;8.902;2023-06-19T05:26:40;11.43;;;7.97;;
22557;SDS011;11445;53.816;8.902;2023-06-19T05:29:07;11.77;;;8.30;;
22557;SDS011;11445;53.816;8.902;2023-06-19T05:31:34;9.85;;;8.57;;
22557;SDS011;11445;53.816;8.902;2023-06-19T05:34:01;12.40;;;8.18;;
22557;SDS011;11445;53.816;8.902;2023-06-19T05:36:28;11.90;;;8.30;;
22557;SDS011;11445;53.816;8.902;2023-06-19T05:38:55;14.35;;;8.65;;
22557;SDS011;11445;53.816;8.902;2023-06-19T05:41:23;11.57;;;7.88;;
22557;SDS011;11445;53.816;8.902;2023-06-19T05:43:50;11.27;;;8.70;;
22557;SDS011;11445;53.816;8.902;2023-06-19T05:46:16;13.57;;;8.43;;
22557;SDS011;11445;53.816;8.902;2023-06-19T05:48:44;12.95;;;8.30;;
22557;SDS011;11445;53.816;8.902;2023-06-19T05:51:10;11.98;;;8.45;;
22557;SDS011;11445;53.816;8.902;2023-06-19T05:53:37;12.98;;;8.85;;
22557;SDS011;11445;53.816;8.902;2023-06-19T05:56:04;9.45;;;8.48;;
22557;SDS011;11445;53.816;8.902;2023-06-19T05:58:33;10.20;;;8.75;;
22557;SDS011;11445;53.816;8.902;2023-06-19T06:01:00;12.85;;;8.73;;
22557;SDS011;11445;53.816;8.902;2023-06-19T06:03:28;9.95;;;8.52;;
22557;SDS011;11445;53.816;8.902;2023-06-19T06:05:55;12.23;;;8.73;;
22557;SDS011;11445;53.816;8.902;2023-06-19T06:08:27;9.95;;;8.75;;
22557;SDS011;11445;53.816;8.902;2023-06-19T06:10:54;9.48;;;8.45;;
22557;SDS011;11445;53.816;8.902;2023-06-19T06:13:21;15.30;;;9.20;;
22557;SDS011;11445;53.816;8.902;2023-06-19T06:15:49;14.45;;;9.68;;
22557;SDS011;11445;53.816;8.902;2023-06-19T06:18:16;9.43;;;8.45;;
22557;SDS011;11445;53.816;8.902;2023-06-19T06:20:43;12.45;;;9.60;;
22557;SDS011;11445;53.816;8.902;2023-06-19T06:23:10;13.88;;;9.85;;
22557;SDS011;11445;53.816;8.902;2023-06-19T06:25:37;14.52;;;10.02;;
22557;SDS011;11445;53.816;8.902;2023-06-19T06:28:03;10.85;;;9.15;;
22557;SDS011;11445;53.816;8.902;2023-06-19T06:30:31;12.00;;;9.98;;
22557;SDS011;11445;53.816;8.902;2023-06-19T06:32:59;13.27;;;10.07;;
22557;SDS011;11445;53.816;8.902;2023-06-19T06:35:26;10.40;;;9.15;;
22557;SDS011;11445;53.816;8.902;2023-06-19T06:37:53;14.43;;;10.20;;
22557;SDS011;11445;53.816;8.902;2023-06-19T06:40:20;10.70;;;9.60;;
22557;SDS011;11445;53.816;8.902;2023-06-19T06:42:47;11.77;;;10.30;;
22557;SDS011;11445;53.816;8.902;2023-06-19T06:45:14;10.73;;;9.63;;
22557;SDS011;11445;53.816;8.902;2023-06-19T06:47:41;11.68;;;9.50;;
22557;SDS011;11445;53.816;8.902;2023-06-19T06:50:09;14.45;;;10.52;;
22557;SDS011;11445;53.816;8.902;2023-06-19T06:52:36;14.02;;;10.57;;
22557;SDS011;11445;53.816;8.902;2023-06-19T06:55:03;12.05;;;9.50;;
22557;SDS011;11445;53.816;8.902;2023-06-19T06:57:31;11.85;;;10.45;;
22557;SDS011;11445;53.816;8.902;2023-06-19T06:59:57;12.10;;;9.23;;
22557;SDS011;11445;53.816;8.902;2023-06-19T07:02:24;12.20;;;10.07;;
22557;SDS011;11445;53.816;8.902;2023-06-19T07:04:51;15.13;;;9.98;;
22557;SDS011;11445;53.816;8.902;2023-06-19T07:07:19;12.27;;;10.18;;
22557;SDS011;11445;53.816;8.902;2023-06-19T07:09:46;15.82;;;10.50;;
22557;SDS011;11445;53.816;8.902;2023-06-19T07:12:13;11.68;;;9.70;;
22557;SDS011;11445;53.816;8.902;2023-06-19T07:14:40;16.73;;;10.15;;
22557;SDS011;11445;53.816;8.902;2023-06-19T07:17:07;13.13;;;10.07;;
22557;SDS011;11445;53.816;8.902;2023-06-19T07:19:34;12.43;;;10.23;;
22557;SDS011;11445;53.816;8.902;2023-06-19T07:22:00;15.55;;;10.30;;
22557;SDS011;11445;53.816;8.902;2023-06-19T07:24:29;15.10;;;10.57;;
22557;SDS011;11445;53.816;8.902;2023-06-19T07:26:56;11.52;;;10.32;;
22557;SDS011;11445;53.816;8.902;2023-06-19T07:29:22;12.40;;;9.35;;
22557;SDS011;11445;53.816;8.902;2023-06-19T07:31:50;13.27;;;9.32;;
22557;SDS011;11445;53.816;8.902;2023-06-19T07:34:17;14.02;;;10.57;;
22557;SDS011;11445;53.816;8.902;2023-06-19T07:36:44;12.52;;;9.77;;
22557;SDS011;11445;53.816;8.902;2023-06-19T07:39:11;11.13;;;9.55;;
22557;SDS011;11445;53.816;8.902;2023-06-19T07:41:39;18.27;;;9.98;;
22557;SDS011;11445;53.816;8.902;2023-06-19T07:44:06;12.32;;;9.20;;
22557;SDS011;11445;53.816;8.902;2023-06-19T07:46:32;11.73;;;9.30;;
22557;SDS011;11445;53.816;8.902;2023-06-19T07:48:59;13.13;;;10.27;;
22557;SDS011;11445;53.816;8.902;2023-06-19T07:51:26;12.77;;;9.35;;
22557;SDS011;11445;53.816;8.902;2023-06-19T07:53:53;13.85;;;9.55;;
22557;SDS011;11445;53.816;8.902;2023-06-19T07:56:19;18.05;;;10.20;;
22557;SDS011;11445;53.816;8.902;2023-06-19T07:58:48;13.48;;;9.57;;
22557;SDS011;11445;53.816;8.902;2023-06-19T08:01:14;11.10;;;9.57;;
22557;SDS011;11445;53.816;8.902;2023-06-19T08:03:42;13.18;;;9.57;;
22557;SDS011;11445;53.816;8.902;2023-06-19T08:06:08;11.05;;;9.40;;
22557;SDS011;11445;53.816;8.902;2023-06-19T08:08:35;12.25;;;10.70;;
22557;SDS011;11445;53.816;8.902;2023-06-19T08:11:02;10.73;;;8.65;;
22557;SDS011;11445;53.816;8.902;2023-06-19T08:13:29;10.07;;;8.98;;
22557;SDS011;11445;53.816;8.902;2023-06-19T08:15:57;10.35;;;9.32;;
22557;SDS011;11445;53.816;8.902;2023-06-19T08:18:24;11.85;;;9.82;;
22557;SDS011;11445;53.816;8.902;2023-06-19T08:20:51;10.40;;;9.32;;
22557;SDS011;11445;53.816;8.902;2023-06-19T08:23:17;15.45;;;10.30;;
22557;SDS011;11445;53.816;8.902;2023-06-19T08:25:44;13.70;;;9.52;;
22557;SDS011;11445;53.816;8.902;2023-06-19T08:28:11;12.90;;;9.75;;
22557;SDS011;11445;53.816;8.902;2023-06-19T08:30:38;11.32;;;9.63;;
22557;SDS011;11445;53.816;8.902;2023-06-19T08:33:06;10.02;;;8.80;;
22557;SDS011;11445;53.816;8.902;2023-06-19T08:35:33;10.10;;;9.10;;
22557;SDS011;11445;53.816;8.902;2023-06-19T08:38:00;15.13;;;8.82;;
22557;SDS011;11445;53.816;8.902;2023-06-19T08:40:27;15.15;;;9.70;;
22557;SDS011;11445;53.816;8.902;2023-06-19T08:42:54;12.75;;;9.32;;
22557;SDS011;11445;53.816;8.902;2023-06-19T08:45:21;9.48;;;8.40;;
22557;SDS011;11445;53.816;8.902;2023-06-19T08:47:48;12.73;;;9.23;;
22557;SDS011;11445;53.816;8.902;2023-06-19T08:50:16;12.77;;;9.52;;
22557;SDS011;11445;53.816;8.902;2023-06-19T08:52:43;12.77;;;9.05;;
22557;SDS011;11445;53.816;8.902;2023-06-19T08:55:10;10.73;;;9.13;;
22557;SDS011;11445;53.816;8.902;2023-06-19T08:57:37;10.27;;;9.27;;
22557;SDS011;11445;53.816;8.902;2023-06-19T09:00:05;13.60;;;9.07;;
22557;SDS011;11445;53.816;8.902;2023-06-19T09:02:41;10.95;;;8.57;;
22557;SDS011;11445;53.816;8.902;2023-06-19T09:05:13;12.45;;;9.00;;
22557;SDS011;11445;53.816;8.902;2023-06-19T09:07:42;11.02;;;8.40;;
22557;SDS011;11445;53.816;8.902;2023-06-19T09:10:16;10.30;;;9.20;;
22557;SDS011;11445;53.816;8.902;2023-06-19T09:12:44;13.10;;;9.77;;
22557;SDS011;11445;53.816;8.902;2023-06-19T09:15:23;9.30;;;8.32;;
22557;SDS011;11445;53.816;8.902;2023-06-19T09:17:59;11.18;;;7.97;;
22557;SDS011;11445;53.816;8.902;2023-06-19T09:20:27;9.05;;;8.15;;
22557;SDS011;11445;53.816;8.902;2023-06-19T09:22:56;10.20;;;8.10;;
22557;SDS011;11445;53.816;8.902;2023-06-19T09:25:23;9.95;;;8.48;;
22557;SDS011;11445;53.816;8.902;2023-06-19T09:27:51;11.07;;;8.35;;
22557;SDS011;11445;53.816;8.902;2023-06-19T09:30:18;8.98;;;8.07;;
22557;SDS011;11445;53.816;8.902;2023-06-19T09:32:45;10.82;;;8.57;;
22557;SDS011;11445;53.816;8.902;2023-06-19T09:35:12;10.55;;;7.63;;
22557;SDS011;11445;53.816;8.902;2023-06-19T09:37:39;11.05;;;7.82;;
22557;SDS011;11445;53.816;8.902;2023-06-19T09:40:08;11.05;;;8.35;;
22557;SDS011;11445;53.816;8.902;2023-06-19T09:42:36;8.45;;;7.55;;
22557;SDS011;11445;53.816;8.902;2023-06-19T09:45:05;11.55;;;8.73;;
22557;SDS011;11445;53.816;8.902;2023-06-19T09:47:35;11.43;;;7.70;;
22557;SDS011;11445;53.816;8.902;2023-06-19T09:50:03;8.30;;;7.28;;
22557;SDS011;11445;53.816;8.902;2023-06-19T09:52:31;12.80;;;7.47;;
22557;SDS011;11445;53.816;8.902;2023-06-19T09:54:58;10.30;;;7.78;;
22557;SDS011;11445;53.816;8.902;2023-06-19T09:57:30;7.82;;;6.47;;
22557;SDS011;11445;53.816;8.902;2023-06-19T09:59:58;9.13;;;6.97;;
22557;SDS011;11445;53.816;8.902;2023-06-19T10:02:34;8.57;;;6.72;;
22557;SDS011;11445;53.816;8.902;2023-06-19T10:05:03;8.85;;;6.88;;
22557;SDS011;11445;53.816;8.902;2023-06-19T10:07:32;14.30;;;7.28;;
22557;SDS011;11445;53.816;8.902;2023-06-19T10:10:02;10.65;;;6.78;;
22557;SDS011;11445;53.816;8.902;2023-06-19T10:12:39;10.15;;;6.95;;
22557;SDS011;11445;53.816;8.902;2023-06-19T10:15:11;13.68;;;6.32;;
22557;SDS011;11445;53.816;8.902;2023-06-19T10:17:42;11.02;;;6.50;;
22557;SDS011;11445;53.816;8.902;2023-06-19T10:20:21;11.30;;;6.80;;
22557;SDS011;11445;53.816;8.902;2023-06-19T10:22:57;8.07;;;7.00;;
22557;SDS011;11445;53.816;8.902;2023-06-19T10:25:28;10.95;;;6.70;;
22557;SDS011;11445;53.816;8.902;2023-06-19T10:27:57;8.73;;;6.20;;
22557;SDS011;11445;53.816;8.902;2023-06-19T10:30:25;7.22;;;5.97;;
22557;SDS011;11445;53.816;8.902;2023-06-19T10:32:52;8.85;;;5.50;;
22557;SDS011;11445;53.816;8.902;2023-06-19T10:35:19;12.45;;;5.97;;
22557;SDS011;11445;53.816;8.902;2023-06-19T10:37:50;7.78;;;5.80;;
22557;SDS011;11445;53.816;8.902;2023-06-19T10:40:17;7.75;;;5.82;;
22557;SDS011;11445;53.816;8.902;2023-06-19T10:42:44;7.60;;;6.90;;
22557;SDS011;11445;53.816;8.902;2023-06-19T10:45:13;10.40;;;6.55;;
22557;SDS011;11445;53.816;8.902;2023-06-19T10:47:42;8.52;;;6.22;;
22557;SDS011;11445;53.816;8.902;2023-06-19T10:50:10;7.47;;;6.22;;
22557;SDS011;11445;53.816;8.902;2023-06-19T10:52:41;13.38;;;6.63;;
22557;SDS011;11445;53.816;8.902;2023-06-19T10:55:10;6.70;;;6.10;;
22557;SDS011;11445;53.816;8.902;2023-06-19T10:57:38;14.15;;;6.63;;
22557;SDS011;11445;53.816;8.902;2023-06-19T11:00:05;9.70;;;5.93;;
22557;SDS011;11445;53.816;8.902;2023-06-19T11:02:39;9.80;;;5.80;;
22557;SDS011;11445;53.816;8.902;2023-06-19T11:05:08;7.45;;;5.43;;
22557;SDS011;11445;53.816;8.902;2023-06-19T11:07:36;5.90;;;5.28;;
22557;SDS011;11445;53.816;8.902;2023-06-19T11:10:03;4.75;;;4.35;;
22557;SDS011;11445;53.816;8.902;2023-06-19T11:12:31;7.47;;;3.80;;
22557;SDS011;11445;53.816;8.902;2023-06-19T11:14:59;8.05;;;3.55;;
22557;SDS011;11445;53.816;8.902;2023-06-19T11:17:28;8.43;;;2.92;;
22557;SDS011;11445;53.816;8.902;2023-06-19T11:19:57;7.97;;;3.95;;
22557;SDS011;11445;53.816;8.902;2023-06-19T11:22:34;4.72;;;4.32;;
22557;SDS011;11445;53.816;8.902;2023-06-19T11:25:03;10.10;;;4.50;;
22557;SDS011;11445;53.816;8.902;2023-06-19T11:27:31;6.35;;;4.45;;
22557;SDS011;11445;53.816;8.902;2023-06-19T11:29:58;5.55;;;4.00;;
22557;SDS011;11445;53.816;8.902;2023-06-19T11:32:30;7.93;;;3.90;;
22557;SDS011;11445;53.816;8.902;2023-06-19T11:35:03;4.60;;;4.00;;
22557;SDS011;11445;53.816;8.902;2023-06-19T11:37:32;5.60;;;4.65;;
22557;SDS011;11445;53.816;8.902;2023-06-19T11:40:00;4.18;;;3.78;;
22557;SDS011;11445;53.816;8.902;2023-06-19T11:42:28;6.72;;;4.00;;
22557;SDS011;11445;53.816;8.902;2023-06-19T11:44:57;4.43;;;3.40;;
22557;SDS011;11445;53.816;8.902;2023-06-19T11:47:27;5.30;;;3.90;;
22557;SDS011;11445;53.816;8.902;2023-06-19T11:49:56;3.67;;;3.28;;
22557;SDS011;11445;53.816;8.902;2023-06-19T11:52:24;3.53;;;3.22;;
22557;SDS011;11445;53.816;8.902;2023-06-19T11:54:51;7.70;;;3.28;;
22557;SDS011;11445;53.816;8.902;2023-06-19T11:57:18;4.32;;;3.83;;
22557;SDS011;11445;53.816;8.902;2023-06-19T11:59:45;6.28;;;3.50;;
22557;SDS011;11445;53.816;8.902;2023-06-19T12:02:12;4.78;;;3.80;;
22557;SDS011;11445;53.816;8.902;2023-06-19T12:04:39;3.63;;;3.35;;
22557;SDS011;11445;53.816;8.902;2023-06-19T12:07:06;4.25;;;3.88;;
22557;SDS011;11445;53.816;8.902;2023-06-19T12:09:34;5.70;;;4.05;;
22557;SDS011;11445;53.816;8.902;2023-06-19T12:12:02;9.52;;;4.20;;
22557;SDS011;11445;53.816;8.902;2023-06-19T12:14:29;5.63;;;4.30;;
22557;SDS011;11445;53.816;8.902;2023-06-19T12:16:56;7.78;;;4.20;;
22557;SDS011;11445;53.816;8.902;2023-06-19T12:19:24;4.72;;;4.05;;
22557;SDS011;11445;53.816;8.902;2023-06-19T12:21:52;5.47;;;4.22;;
22557;SDS011;11445;53.816;8.902;2023-06-19T12:24:19;5.00;;;4.50;;
22557;SDS011;11445;53.816;8.902;2023-06-19T12:26:47;7.93;;;4.78;;
22557;SDS011;11445;53.816;8.902;2023-06-19T12:29:14;5.78;;;5.18;;
22557;SDS011;11445;53.816;8.902;2023-06-19T12:31:42;5.28;;;4.15;;
22557;SDS011;11445;53.816;8.902;2023-06-19T12:34:09;6.00;;;5.32;;
22557;SDS011;11445;53.816;8.902;2023-06-19T12:36:36;5.75;;;4.93;;
22557;SDS011;11445;53.816;8.902;2023-06-19T12:39:03;5.68;;;4.97;;
22557;SDS011;11445;53.816;8.902;2023-06-19T12:41:31;6.10;;;5.50;;
22557;SDS011;11445;53.816;8.902;2023-06-19T12:43:59;5.72;;;4.90;;
22557;SDS011;11445;53.816;8.902;2023-06-19T12:46:26;6.20;;;4.70;;
22557;SDS011;11445;53.816;8.902;2023-06-19T12:48:53;4.78;;;4.15;;
22557;SDS011;11445;53.816;8.902;2023-06-19T12:51:19;4.65;;;4.25;;
22557;SDS011;11445;53.816;8.902;2023-06-19T12:53:46;4.03;;;3.63;;
22557;SDS011;11445;53.816;8.902;2023-06-19T12:56:13;7.35;;;3.88;;
22557;SDS011;11445;53.816;8.902;2023-06-19T12:58:40;5.85;;;4.82;;
22557;SDS011;11445;53.816;8.902;2023-06-19T13:01:08;4.75;;;4.22;;
22557;SDS011;11445;53.816;8.902;2023-06-19T13:03:34;4.07;;;3.78;;
22557;SDS011;11445;53.816;8.902;2023-06-19T13:06:01;9.57;;;4.70;;
22557;SDS011;11445;53.816;8.902;2023-06-19T13:08:28;4.63;;;4.22;;
22557;SDS011;11445;53.816;8.902;2023-06-19T13:10:55;6.68;;;4.28;;
22557;SDS011;11445;53.816;8.902;2023-06-19T13:13:22;5.40;;;3.63;;
22557;SDS011;11445;53.816;8.902;2023-06-19T13:15:48;4.97;;;3.97;;
22557;SDS011;11445;53.816;8.902;2023-06-19T13:18:17;4.10;;;3.70;;
22557;SDS011;11445;53.816;8.902;2023-06-19T13:20:44;7.10;;;4.07;;
22557;SDS011;11445;53.816;8.902;2023-06-19T13:23:13;5.90;;;4.57;;
22557;SDS011;11445;53.816;8.902;2023-06-19T13:25:39;5.38;;;4.25;;
22557;SDS011;11445;53.816;8.902;2023-06-19T13:28:06;5.60;;;4.35;;
22557;SDS011;11445;53.816;8.902;2023-06-19T13:30:33;5.60;;;4.00;;
22557;SDS011;11445;53.816;8.902;2023-06-19T13:33:00;9.93;;;5.28;;
22557;SDS011;11445;53.816;8.902;2023-06-19T13:35:29;5.63;;;5.10;;
22557;SDS011;11445;53.816;8.902;2023-06-19T13:37:56;7.53;;;4.32;;
22557;SDS011;11445;53.816;8.902;2023-06-19T13:40:24;5.30;;;4.80;;
22557;SDS011;11445;53.816;8.902;2023-06-19T13:42:51;4.90;;;4.32;;
22557;SDS011;11445;53.816;8.902;2023-06-19T13:45:18;6.32;;;5.40;;
22557;SDS011;11445;53.816;8.902;2023-06-19T13:47:45;6.15;;;5.50;;
22557;SDS011;11445;53.816;8.902;2023-06-19T13:50:12;5.85;;;5.25;;
22557;SDS011;11445;53.816;8.902;2023-06-19T13:52:44;7.30;;;5.05;;
22557;SDS011;11445;53.816;8.902;2023-06-19T13:55:11;8.95;;;4.78;;
22557;SDS011;11445;53.816;8.902;2023-06-19T13:57:39;5.40;;;4.90;;
22557;SDS011;11445;53.816;8.902;2023-06-19T14:00:06;6.03;;;5.20;;
22557;SDS011;11445;53.816;8.902;2023-06-19T14:02:35;6.47;;;4.30;;
22557;SDS011;11445;53.816;8.902;2023-06-19T14:05:02;11.35;;;5.50;;
22557;SDS011;11445;53.816;8.902;2023-06-19T14:07:29;5.47;;;4.97;;
22557;SDS011;11445;53.816;8.902;2023-06-19T14:09:57;5.35;;;4.82;;
22557;SDS011;11445;53.816;8.902;2023-06-19T14:12:24;5.38;;;4.88;;
22557;SDS011;11445;53.816;8.902;2023-06-19T14:14:51;5.43;;;4.43;;
22557;SDS011;11445;53.816;8.902;2023-06-19T14:17:18;5.75;;;4.80;;
22557;SDS011;11445;53.816;8.902;2023-06-19T14:19:44;7.07;;;4.55;;
22557;SDS011;11445;53.816;8.902;2023-06-19T14:22:11;5.55;;;5.05;;
22557;SDS011;11445;53.816;8.902;2023-06-19T14:24:38;5.13;;;4.53;;
22557;SDS011;11445;53.816;8.902;2023-06-19T14:27:06;5.78;;;5.28;;
22557;SDS011;11445;53.816;8.902;2023-06-19T14:29:33;6.97;;;5.38;;
22557;SDS011;11445;53.816;8.902;2023-06-19T14:32:00;6.45;;;4.97;;
22557;SDS011;11445;53.816;8.902;2023-06-19T14:34:27;5.13;;;4.43;;
22557;SDS011;11445;53.816;8.902;2023-06-19T14:36:54;6.15;;;4.68;;
22557;SDS011;11445;53.816;8.902;2023-06-19T14:39:21;5.85;;;4.85;;
22557;SDS011;11445;53.816;8.902;2023-06-19T14:41:48;5.45;;;4.95;;
22557;SDS011;11445;53.816;8.902;2023-06-19T14:44:16;5.97;;;4.72;;
22557;SDS011;11445;53.816;8.902;2023-06-19T14:46:43;5.35;;;4.85;;